createdAt,value
2023-06-02T00:01:49.986Z,16.81
2023-06-02T00:04:24.645Z,16.73
2023-06-02T00:06:54.188Z,16.59
2023-06-02T00:09:23.879Z,16.60
2023-06-02T00:11:53.212Z,16.64
2023-06-02T00:14:23.222Z,16.54
2023-06-02T00:16:52.209Z,16.37
2023-06-02T00:19:24.420Z,16.27
2023-06-02T00:21:54.319Z,16.34
2023-06-02T00:24:23.088Z,16.37
2023-06-02T00:26:51.687Z,16.27
2023-06-02T00:29:21.041Z,16.18
2023-06-02T00:31:52.342Z,16.15
2023-06-02T00:34:21.581Z,16.15
2023-06-02T00:36:53.522Z,16.35
2023-06-02T00:39:24.298Z,16.50
2023-06-02T00:41:54.583Z,16.47
2023-06-02T00:44:23.997Z,16.38
2023-06-02T00:46:53.132Z,16.36
2023-06-02T00:49:22.495Z,16.30
2023-06-02T00:51:53.326Z,16.30
2023-06-02T00:54:22.705Z,16.26
2023-06-02T00:56:52.284Z,16.21
2023-06-02T00:59:23.460Z,15.99
2023-06-02T01:01:54.744Z,15.72
2023-06-02T01:04:23.550Z,15.61
2023-06-02T01:06:54.200Z,15.60
2023-06-02T01:09:24.008Z,15.49
2023-06-02T01:11:53.078Z,15.44
2023-06-02T01:14:21.770Z,15.44
2023-06-02T01:16:52.347Z,15.51
2023-06-02T01:19:22.281Z,15.55
2023-06-02T01:21:59.920Z,15.60
2023-06-02T01:24:36.802Z,15.65
2023-06-02T01:27:09.366Z,15.66
2023-06-02T01:29:38.463Z,15.76
2023-06-02T01:32:13.829Z,15.65
2023-06-02T01:34:49.255Z,15.49
2023-06-02T01:37:22.150Z,15.42
2023-06-02T01:39:52.626Z,15.52
2023-06-02T01:42:23.406Z,15.62
2023-06-02T01:44:52.638Z,15.65
2023-06-02T01:47:22.547Z,15.53
2023-06-02T01:49:51.353Z,15.48
2023-06-02T01:52:20.150Z,15.42
2023-06-02T01:54:51.762Z,15.46
2023-06-02T01:57:21.629Z,15.48
2023-06-02T01:59:50.214Z,15.36
2023-06-02T02:02:19.054Z,15.33
2023-06-02T02:04:47.807Z,15.36
2023-06-02T02:07:20.354Z,15.36
2023-06-02T02:09:50.322Z,15.32
2023-06-02T02:12:20.308Z,15.26
2023-06-02T02:14:52.347Z,15.27
2023-06-02T02:17:21.084Z,15.20
2023-06-02T02:19:51.412Z,15.33
2023-06-02T02:22:20.591Z,15.30
2023-06-02T02:24:49.351Z,15.25
2023-06-02T02:27:18.224Z,15.17
2023-06-02T02:29:47.493Z,15.16
2023-06-02T02:32:16.188Z,15.12
2023-06-02T02:34:46.464Z,15.02
2023-06-02T02:37:15.365Z,15.00
2023-06-02T02:39:44.032Z,14.98
2023-06-02T02:42:12.654Z,15.01
2023-06-02T02:44:41.450Z,14.96
2023-06-02T02:47:10.732Z,14.92
2023-06-02T02:49:39.803Z,14.88
2023-06-02T02:52:09.317Z,14.77
2023-06-02T02:54:37.916Z,14.66
2023-06-02T02:57:09.122Z,14.61
2023-06-02T02:59:38.463Z,14.67
2023-06-02T03:02:08.055Z,14.69
2023-06-02T03:04:37.246Z,14.71
2023-06-02T03:07:07.531Z,14.70
2023-06-02T03:09:36.305Z,14.77
2023-06-02T03:12:05.627Z,14.83
2023-06-02T03:14:34.514Z,15.13
2023-06-02T03:17:03.243Z,15.32
2023-06-02T03:19:32.640Z,15.44
2023-06-02T03:22:01.623Z,15.54
2023-06-02T03:24:30.634Z,15.49
2023-06-02T03:26:59.952Z,15.40
2023-06-02T03:30:32.778Z,15.41
2023-06-02T03:33:42.223Z,15.45
2023-06-02T03:36:35.821Z,15.51
2023-06-02T03:39:06.526Z,15.44
2023-06-02T03:41:36.700Z,15.21
2023-06-02T03:44:06.517Z,15.09
2023-06-02T03:46:36.352Z,15.08
2023-06-02T03:49:05.596Z,15.05
2023-06-02T03:51:34.380Z,15.13
2023-06-02T03:54:03.204Z,15.11
2023-06-02T03:56:31.851Z,15.17
2023-06-02T03:59:00.676Z,15.40
2023-06-02T04:01:29.465Z,15.61
2023-06-02T04:03:58.220Z,15.74
2023-06-02T04:06:29.151Z,15.83
2023-06-02T04:08:57.969Z,15.64
2023-06-02T04:11:26.949Z,15.63
2023-06-02T04:13:56.347Z,15.61
2023-06-02T04:16:25.016Z,15.54
2023-06-02T04:18:54.553Z,15.53
2023-06-02T04:21:23.251Z,15.50
2023-06-02T04:23:51.853Z,15.39
2023-06-02T04:26:21.444Z,15.30
2023-06-02T04:28:50.828Z,15.32
2023-06-02T04:31:27.318Z,15.31
2023-06-02T04:33:57.295Z,15.36
2023-06-02T04:36:26.532Z,15.58
2023-06-02T04:38:55.154Z,15.63
2023-06-02T04:41:23.858Z,15.79
2023-06-02T04:43:52.952Z,16.13
2023-06-02T04:46:23.673Z,16.65
2023-06-02T04:48:52.569Z,16.81
2023-06-02T04:51:26.699Z,16.86
2023-06-02T04:53:55.708Z,16.78
2023-06-02T04:56:27.229Z,16.67
2023-06-02T04:58:57.683Z,16.56
2023-06-02T05:01:33.345Z,16.50
2023-06-02T05:04:07.638Z,16.32
2023-06-02T05:06:37.300Z,16.22
2023-06-02T05:09:06.413Z,16.07
2023-06-02T05:11:36.022Z,16.00
2023-06-02T05:14:05.746Z,15.97
2023-06-02T05:16:37.066Z,15.82
2023-06-02T05:19:06.302Z,15.86
2023-06-02T05:21:35.448Z,15.96
2023-06-02T05:24:06.044Z,15.90
2023-06-02T05:26:35.775Z,16.01
2023-06-02T05:29:04.670Z,16.01
2023-06-02T05:31:38.821Z,16.10
2023-06-02T05:34:07.969Z,16.21
2023-06-02T05:36:37.737Z,16.01
2023-06-02T05:39:07.767Z,15.88
2023-06-02T05:41:37.295Z,15.89
2023-06-02T05:44:06.401Z,15.76
2023-06-02T05:46:36.112Z,15.80
2023-06-02T05:49:05.001Z,15.94
2023-06-02T05:51:34.302Z,15.89
2023-06-02T05:54:03.150Z,15.88
2023-06-02T05:56:31.963Z,15.89
2023-06-02T05:59:00.816Z,15.88
2023-06-02T06:01:29.625Z,15.93
2023-06-02T06:03:58.831Z,15.88
2023-06-02T06:06:28.372Z,15.79
2023-06-02T06:08:57.281Z,15.76
2023-06-02T06:11:26.495Z,15.72
2023-06-02T06:13:55.319Z,15.80
2023-06-02T06:16:25.601Z,15.84
2023-06-02T06:18:54.395Z,16.06
2023-06-02T06:21:24.398Z,16.15
2023-06-02T06:23:53.512Z,16.11
2023-06-02T06:26:32.049Z,15.96
2023-06-02T06:29:00.966Z,16.02
2023-06-02T06:31:29.813Z,16.12
2023-06-02T06:33:58.903Z,16.12
2023-06-02T06:36:27.610Z,16.09
2023-06-02T06:38:56.945Z,16.11
2023-06-02T06:41:30.871Z,16.33
2023-06-02T06:44:02.241Z,16.32
2023-06-02T06:46:30.956Z,16.57
2023-06-02T06:49:00.385Z,16.83
2023-06-02T06:51:29.345Z,16.97
2023-06-02T06:53:58.055Z,17.07
2023-06-02T06:56:27.541Z,17.14
2023-06-02T06:58:56.156Z,17.11
2023-06-02T07:01:24.938Z,16.82
2023-06-02T07:03:53.698Z,16.75
2023-06-02T07:06:22.499Z,16.76
2023-06-02T07:08:51.780Z,16.76
2023-06-02T07:11:20.537Z,16.65
2023-06-02T07:13:49.767Z,16.59
2023-06-02T07:16:20.527Z,16.65
2023-06-02T07:18:49.633Z,16.56
2023-06-02T07:21:18.885Z,16.60
2023-06-02T07:23:47.600Z,16.61
2023-06-02T07:26:16.480Z,16.55
2023-06-02T07:28:45.087Z,16.64
2023-06-02T07:31:14.374Z,16.53
2023-06-02T07:33:46.126Z,16.40
2023-06-02T07:36:14.905Z,16.25
2023-06-02T07:38:44.456Z,16.21
2023-06-02T07:41:13.491Z,16.21
2023-06-02T07:43:42.121Z,16.12
2023-06-02T07:46:11.119Z,16.19
2023-06-02T07:48:39.806Z,16.14
2023-06-02T07:51:09.238Z,16.12
2023-06-02T07:53:37.900Z,16.18
2023-06-02T07:56:07.950Z,16.33
2023-06-02T07:58:37.031Z,16.35
2023-06-02T08:01:08.237Z,16.39
2023-06-02T08:03:37.311Z,16.44
2023-06-02T08:06:06.522Z,16.48
2023-06-02T08:08:35.311Z,16.39
2023-06-02T08:11:04.028Z,16.30
2023-06-02T08:13:33.522Z,16.25
2023-06-02T08:16:26.558Z,16.25
2023-06-02T08:18:51.272Z,16.25
2023-06-02T08:21:20.730Z,16.17
2023-06-02T08:23:49.501Z,16.08
2023-06-02T08:26:18.596Z,16.07
2023-06-02T08:28:50.471Z,16.30
2023-06-02T08:31:21.773Z,16.55
2023-06-02T08:33:52.967Z,16.64
2023-06-02T08:36:21.985Z,16.59
2023-06-02T08:38:52.375Z,16.52
2023-06-02T08:41:21.922Z,16.53
2023-06-02T08:43:52.821Z,16.47
2023-06-02T08:46:21.661Z,16.53
2023-06-02T08:48:56.691Z,16.48
2023-06-02T08:51:25.794Z,16.42
2023-06-02T08:53:54.842Z,16.53
2023-06-02T08:56:24.440Z,16.56
2023-06-02T08:58:53.432Z,16.68
2023-06-02T09:01:22.363Z,16.79
2023-06-02T09:03:51.377Z,16.88
2023-06-02T09:06:22.134Z,16.86
2023-06-02T09:08:59.104Z,16.66
2023-06-02T09:11:29.062Z,16.53
2023-06-02T09:13:58.501Z,16.55
2023-06-02T09:16:39.442Z,16.69
2023-06-02T09:19:09.384Z,16.76
2023-06-02T09:21:38.684Z,16.79
2023-06-02T09:26:48.076Z,16.83
2023-06-02T09:29:17.315Z,16.80
2023-06-02T09:31:48.575Z,16.97
2023-06-02T09:34:19.678Z,17.09
2023-06-02T09:36:51.804Z,17.34
2023-06-02T09:39:34.865Z,17.41
2023-06-02T09:42:05.282Z,17.42
2023-06-02T09:44:35.432Z,17.32
2023-06-02T09:47:19.482Z,17.30
2023-06-02T09:49:48.776Z,17.36
2023-06-02T09:52:19.445Z,17.22
2023-06-02T09:54:50.410Z,17.16
2023-06-02T09:57:19.711Z,17.08
2023-06-02T09:59:48.761Z,17.06
2023-06-02T10:02:18.712Z,17.14
2023-06-02T10:04:48.244Z,17.17
2023-06-02T10:07:28.710Z,17.16
2023-06-02T10:10:13.872Z,17.15
2023-06-02T10:13:05.462Z,17.06
2023-06-02T10:16:00.306Z,16.88
2023-06-02T10:18:54.888Z,16.67
2023-06-02T10:21:35.877Z,16.59
2023-06-02T10:24:16.353Z,16.42
2023-06-02T10:27:02.791Z,16.49
2023-06-02T10:29:34.503Z,16.47
2023-06-02T10:32:22.897Z,16.34
2023-06-02T10:34:52.565Z,16.30
2023-06-02T10:37:22.924Z,16.34
2023-06-02T10:39:54.138Z,16.28
2023-06-02T10:42:24.822Z,16.14
2023-06-02T10:45:14.678Z,16.38
2023-06-02T10:47:43.824Z,16.44
2023-06-02T10:50:17.380Z,16.33
2023-06-02T10:53:13.312Z,16.31
2023-06-02T10:55:42.720Z,16.29
2023-06-02T10:58:13.823Z,16.21
2023-06-02T11:00:47.861Z,16.01
2023-06-02T11:03:32.150Z,15.99
2023-06-02T11:06:21.855Z,16.01
2023-06-02T11:08:53.921Z,15.99
2023-06-02T11:11:55.315Z,15.91
2023-06-02T11:14:25.788Z,15.74
2023-06-02T11:17:30.757Z,15.57
2023-06-02T11:20:00.984Z,15.40
2023-06-02T11:22:29.825Z,15.20
2023-06-02T11:24:59.597Z,15.06
2023-06-02T11:27:42.641Z,15.21
2023-06-02T11:30:14.875Z,15.39
2023-06-02T11:32:44.945Z,15.36
2023-06-02T11:35:13.819Z,15.32
2023-06-02T11:37:44.690Z,15.29
2023-06-02T11:40:14.231Z,15.17
2023-06-02T11:42:45.637Z,15.00
2023-06-02T11:45:22.905Z,14.93
2023-06-02T11:47:59.924Z,14.83
2023-06-02T11:50:29.385Z,14.57
2023-06-02T11:52:58.765Z,14.62
2023-06-02T11:55:32.652Z,14.59
2023-06-02T11:58:24.205Z,14.52
2023-06-02T12:00:54.567Z,14.41
2023-06-02T12:03:25.475Z,14.37
2023-06-02T12:05:56.335Z,14.40
2023-06-02T12:08:27.609Z,14.50
2023-06-02T12:10:59.939Z,14.49
2023-06-02T12:13:36.436Z,14.55
2023-06-02T12:16:21.375Z,14.39
2023-06-02T12:18:50.518Z,14.35
2023-06-02T12:21:27.192Z,14.47
2023-06-02T12:23:57.558Z,14.55
2023-06-02T12:26:27.545Z,14.54
2023-06-02T12:28:58.208Z,14.54
2023-06-02T12:31:27.044Z,14.55
2023-06-02T12:33:55.948Z,14.59
2023-06-02T12:36:24.683Z,14.55
2023-06-02T12:38:53.573Z,14.29
2023-06-02T12:41:22.937Z,14.30
2023-06-02T12:43:51.688Z,14.33
2023-06-02T12:46:20.675Z,14.41
2023-06-02T12:48:50.147Z,14.45
2023-06-02T12:51:19.009Z,14.46
2023-06-02T12:53:47.788Z,14.34
2023-06-02T12:56:16.956Z,14.29
2023-06-02T12:58:46.030Z,14.38
2023-06-02T13:01:16.040Z,14.47
2023-06-02T13:03:50.648Z,14.57
2023-06-02T13:06:18.908Z,14.66
2023-06-02T13:08:48.209Z,14.72
2023-06-02T13:11:17.726Z,14.89
2023-06-02T13:13:46.650Z,15.01
2023-06-02T13:16:16.066Z,15.09
2023-06-02T13:18:47.900Z,15.15
2023-06-02T13:21:17.561Z,15.21
2023-06-02T13:23:54.171Z,15.35
2023-06-02T13:26:23.351Z,15.52
2023-06-02T13:28:52.511Z,15.60
2023-06-02T13:31:21.207Z,15.64
2023-06-02T13:33:50.544Z,15.79
2023-06-02T13:36:19.788Z,15.79
2023-06-02T13:38:49.432Z,15.76
2023-06-02T13:41:18.543Z,15.67
2023-06-02T13:43:47.228Z,15.66
2023-06-02T13:46:17.357Z,15.83
2023-06-02T13:48:46.086Z,15.91
2023-06-02T13:51:14.854Z,16.12
2023-06-02T13:53:43.528Z,16.17
2023-06-02T13:56:13.649Z,16.18
2023-06-02T13:58:42.384Z,16.25
2023-06-02T14:01:11.553Z,16.51
2023-06-02T14:03:41.064Z,16.51
2023-06-02T14:06:10.699Z,16.48
2023-06-02T14:08:39.529Z,16.55
2023-06-02T14:11:09.125Z,16.80
2023-06-02T14:13:38.050Z,16.86
2023-06-02T14:16:07.962Z,16.92
2023-06-02T14:18:37.105Z,17.05
2023-06-02T14:21:06.230Z,16.94
2023-06-02T14:23:36.249Z,16.99
2023-06-02T14:26:05.543Z,17.09
2023-06-02T14:28:35.262Z,17.16
2023-06-02T14:31:05.465Z,17.27
2023-06-02T14:33:35.582Z,17.39
2023-06-02T14:36:06.951Z,17.62
2023-06-02T14:38:36.129Z,17.55
2023-06-02T14:41:05.494Z,17.46
2023-06-02T14:43:34.510Z,17.44
2023-06-02T14:46:07.187Z,17.50
2023-06-02T14:48:36.824Z,17.56
2023-06-02T14:51:06.064Z,17.66
2023-06-02T14:53:35.146Z,17.56
2023-06-02T14:56:04.600Z,17.47
2023-06-02T14:58:33.885Z,17.20
2023-06-02T15:01:03.750Z,17.19
2023-06-02T15:03:32.861Z,17.21
2023-06-02T15:06:02.505Z,17.19
2023-06-02T15:08:34.247Z,17.13
2023-06-02T15:11:03.525Z,17.23
2023-06-02T15:13:35.230Z,17.47
2023-06-02T15:16:04.551Z,17.64
2023-06-02T15:18:40.371Z,17.82
2023-06-02T15:21:17.753Z,17.79
2023-06-02T15:23:46.602Z,17.67
2023-06-02T15:26:16.369Z,17.69
2023-06-02T15:28:45.966Z,17.74
2023-06-02T15:31:15.136Z,17.70
2023-06-02T15:33:45.819Z,17.77
2023-06-02T15:36:15.549Z,17.99
2023-06-02T15:38:44.289Z,18.06
2023-06-02T15:41:13.126Z,18.04
2023-06-02T15:43:41.957Z,18.17
2023-06-02T15:46:10.940Z,18.23
2023-06-02T15:48:44.651Z,18.21
2023-06-02T15:51:13.847Z,18.10
2023-06-02T15:53:44.135Z,18.07
2023-06-02T15:56:14.819Z,18.00
2023-06-02T15:58:43.868Z,17.89
2023-06-02T16:01:13.292Z,17.86
2023-06-02T16:03:42.378Z,17.99
2023-06-02T16:06:11.692Z,18.03
2023-06-02T16:09:07.396Z,18.05
2023-06-02T16:11:36.735Z,18.10
2023-06-02T16:14:05.498Z,18.07
2023-06-02T16:16:35.109Z,18.03
2023-06-02T16:19:06.108Z,17.97
2023-06-02T16:21:35.269Z,17.98
2023-06-02T16:24:04.350Z,18.00
2023-06-02T16:26:33.246Z,18.07
2023-06-02T16:29:02.667Z,18.03
2023-06-02T16:31:31.661Z,18.07
2023-06-02T16:34:00.543Z,17.97
2023-06-02T16:36:29.936Z,17.83
2023-06-02T16:39:01.554Z,17.77
2023-06-02T16:41:30.565Z,17.86
2023-06-02T16:43:59.623Z,17.96
2023-06-02T16:46:28.557Z,17.92
2023-06-02T16:48:57.689Z,17.82
2023-06-02T16:51:26.996Z,17.71
2023-06-02T16:53:56.156Z,17.67
2023-06-02T16:56:26.586Z,17.67
2023-06-02T16:58:55.663Z,17.60
2023-06-02T17:01:24.494Z,17.58
2023-06-02T17:03:53.588Z,17.56
2023-06-02T17:06:22.642Z,17.52
2023-06-02T17:09:07.025Z,17.42
2023-06-02T17:11:37.080Z,17.42
2023-06-02T17:14:05.956Z,17.46
2023-06-02T17:16:35.950Z,17.39
2023-06-02T17:19:05.195Z,17.38
2023-06-02T17:21:34.126Z,17.42
2023-06-02T17:24:03.102Z,17.39
2023-06-02T17:26:31.879Z,17.26
2023-06-02T17:29:01.485Z,17.25
2023-06-02T17:31:30.741Z,17.25
2023-06-02T17:33:59.972Z,17.09
2023-06-02T17:36:28.703Z,17.04
2023-06-02T17:38:57.628Z,17.06
2023-06-02T17:41:26.897Z,17.09
2023-06-02T17:43:55.693Z,17.16
2023-06-02T17:46:27.095Z,16.99
2023-06-02T17:48:56.260Z,16.89
2023-06-02T17:51:28.057Z,16.85
2023-06-02T17:53:57.054Z,16.84
2023-06-02T17:56:27.451Z,16.76
2023-06-02T17:58:56.260Z,16.67
2023-06-02T18:01:25.034Z,16.54
2023-06-02T18:03:54.190Z,16.51
2023-06-02T18:06:22.991Z,16.54
2023-06-02T18:08:52.010Z,16.44
2023-06-02T18:11:21.177Z,16.41
2023-06-02T18:13:49.881Z,16.32
2023-06-02T18:16:18.562Z,16.24
2023-06-02T18:18:48.151Z,16.19
2023-06-02T18:21:17.634Z,16.16
2023-06-02T18:23:46.510Z,16.07
2023-06-02T18:26:15.641Z,15.89
2023-06-02T18:28:47.494Z,15.80
2023-06-02T18:31:16.908Z,15.66
2023-06-02T18:33:46.502Z,15.56
2023-06-02T18:36:21.634Z,15.46
2023-06-02T18:38:53.652Z,15.41
2023-06-02T18:41:22.847Z,15.42
2023-06-02T18:43:51.845Z,15.41
2023-06-02T18:46:31.485Z,15.37
2023-06-02T18:49:07.169Z,15.49
2023-06-02T18:51:36.286Z,15.50
2023-06-02T18:54:06.110Z,15.39
2023-06-02T18:56:35.029Z,15.33
2023-06-02T18:59:03.744Z,15.41
2023-06-02T19:01:32.985Z,15.33
2023-06-02T19:04:02.051Z,15.05
2023-06-02T19:06:31.159Z,14.99
2023-06-02T19:09:00.492Z,14.90
2023-06-02T19:11:29.456Z,15.01
2023-06-02T19:13:58.736Z,14.93
2023-06-02T19:16:27.919Z,14.69
2023-06-02T19:18:57.726Z,14.67
2023-06-02T19:21:29.341Z,14.71
2023-06-02T19:23:59.572Z,14.68
2023-06-02T19:26:28.556Z,14.55
2023-06-02T19:28:57.328Z,14.51
2023-06-02T19:31:26.264Z,14.44
2023-06-02T19:33:55.126Z,14.38
2023-06-02T19:36:23.940Z,14.28
2023-06-02T19:38:53.034Z,14.23
2023-06-02T19:41:21.635Z,14.13
2023-06-02T19:43:50.366Z,14.04
2023-06-02T19:46:19.683Z,13.91
2023-06-02T19:48:48.673Z,13.83
2023-06-02T19:51:17.525Z,13.94
2023-06-02T19:53:47.008Z,14.04
2023-06-02T19:56:16.569Z,13.95
2023-06-02T19:58:45.578Z,13.80
2023-06-02T20:01:14.583Z,13.79
2023-06-02T20:03:43.694Z,13.66
2023-06-02T20:06:13.272Z,13.60
2023-06-02T20:08:42.324Z,13.58
2023-06-02T20:11:11.051Z,13.55
2023-06-02T20:13:40.548Z,13.54
2023-06-02T20:16:09.798Z,13.53
2023-06-02T20:18:38.757Z,13.32
2023-06-02T20:21:08.460Z,13.13
2023-06-02T20:23:37.801Z,13.01
2023-06-02T20:26:07.307Z,13.05
2023-06-02T20:28:36.459Z,13.08
2023-06-02T20:31:08.322Z,12.94
2023-06-02T20:33:37.794Z,12.82
2023-06-02T20:36:08.547Z,12.82
2023-06-02T20:38:37.856Z,12.74
2023-06-02T20:41:06.553Z,12.67
2023-06-02T20:43:35.458Z,12.61
2023-06-02T20:46:05.347Z,12.58
2023-06-02T20:48:34.201Z,12.45
2023-06-02T20:51:03.561Z,12.37
2023-06-02T20:53:32.360Z,12.27
2023-06-02T20:56:01.220Z,12.33
2023-06-02T20:58:31.237Z,12.20
2023-06-02T21:01:00.107Z,12.10
2023-06-02T21:03:29.953Z,12.06
2023-06-02T21:05:58.959Z,12.24
2023-06-02T21:08:30.887Z,12.22
2023-06-02T21:11:01.438Z,12.06
2023-06-02T21:13:30.120Z,12.06
2023-06-02T21:15:58.837Z,12.01
2023-06-02T21:18:28.211Z,11.98
2023-06-02T21:20:57.141Z,11.90
2023-06-02T21:23:26.125Z,12.05
2023-06-02T21:25:55.027Z,12.09
2023-06-02T21:28:24.087Z,11.91
2023-06-02T21:30:53.158Z,11.85
2023-06-02T21:33:22.307Z,11.82
2023-06-02T21:35:51.506Z,11.71
2023-06-02T21:38:39.476Z,11.73
2023-06-02T21:41:08.201Z,11.66
2023-06-02T21:43:37.006Z,11.75
2023-06-02T21:46:06.399Z,11.75
2023-06-02T21:48:35.398Z,11.72
2023-06-02T21:51:05.023Z,11.70
2023-06-02T21:53:33.836Z,11.49
2023-06-02T21:56:15.100Z,11.38
2023-06-02T21:58:44.003Z,11.51
2023-06-02T22:01:13.391Z,11.35
2023-06-02T22:03:42.588Z,11.43
2023-06-02T22:06:18.150Z,11.39
2023-06-02T22:08:57.260Z,11.25
2023-06-02T22:11:26.936Z,11.05
2023-06-02T22:13:56.912Z,10.99
2023-06-02T22:16:26.107Z,11.02
2023-06-02T22:18:56.560Z,11.05
2023-06-02T22:21:41.727Z,11.04
2023-06-02T22:24:27.224Z,10.99
2023-06-02T22:26:57.505Z,10.96
2023-06-02T22:29:26.445Z,10.95
2023-06-02T22:31:55.237Z,10.87
2023-06-02T22:34:24.657Z,10.95
2023-06-02T22:36:53.940Z,11.00
2023-06-02T22:39:24.413Z,10.95
2023-06-02T22:41:54.290Z,10.77
2023-06-02T22:44:23.458Z,10.74
2023-06-02T22:46:53.693Z,10.73
2023-06-02T22:49:23.570Z,10.72
2023-06-02T22:51:53.567Z,10.86
2023-06-02T22:54:22.523Z,10.81
2023-06-02T22:56:52.189Z,10.74
2023-06-02T22:59:20.829Z,10.66
2023-06-02T23:01:50.137Z,10.75
2023-06-02T23:04:19.590Z,10.71
2023-06-02T23:06:48.362Z,10.70
2023-06-02T23:09:18.333Z,10.75
2023-06-02T23:11:47.618Z,10.63
2023-06-02T23:14:17.311Z,10.53
2023-06-02T23:16:48.046Z,10.40
2023-06-02T23:19:17.452Z,10.47
2023-06-02T23:21:46.418Z,10.56
2023-06-02T23:24:15.749Z,10.37
2023-06-02T23:26:44.850Z,10.32
2023-06-02T23:29:14.063Z,10.12
2023-06-02T23:31:42.716Z,10.12
2023-06-02T23:34:12.045Z,10.13
2023-06-02T23:36:41.671Z,10.01
2023-06-02T23:39:12.018Z,9.83
2023-06-02T23:41:41.602Z,9.62
2023-06-02T23:44:10.856Z,9.53
2023-06-02T23:46:39.658Z,9.54
2023-06-02T23:49:09.448Z,9.64
2023-06-02T23:51:38.145Z,9.66
2023-06-02T23:54:07.790Z,9.49
2023-06-02T23:56:37.113Z,9.47
2023-06-02T23:59:06.373Z,9.58
